sensor_id;sensor_type;location;lat;lon;timestamp;pressure;altitude;pressure_sealevel;temperature;humidity
56630;BME280;42502;40.732;-74.254;2023-01-15T00:00:26;100288.78;;;18.76;33.13
56630;BME280;42502;40.732;-74.254;2023-01-15T00:02:27;100291.69;;;18.80;33.22
56630;BME280;42502;40.732;-74.254;2023-01-15T00:04:27;100294.50;;;18.80;33.26
56630;BME280;42502;40.732;-74.254;2023-01-15T00:06:29;100276.19;;;18.70;33.21
56630;BME280;42502;40.732;-74.254;2023-01-15T00:08:30;100288.41;;;18.78;33.34
56630;BME280;42502;40.732;-74.254;2023-01-15T00:10:31;100260.00;;;18.63;33.36
56630;BME280;42502;40.732;-74.254;2023-01-15T00:12:32;100296.00;;;18.77;33.23
56630;BME280;42502;40.732;-74.254;2023-01-15T00:14:33;100286.81;;;18.77;33.20
56630;BME280;42502;40.732;-74.254;2023-01-15T00:16:37;100251.50;;;18.60;33.21
56630;BME280;42502;40.732;-74.254;2023-01-15T00:18:40;100259.28;;;18.67;33.38
56630;BME280;42502;40.732;-74.254;2023-01-15T00:20:44;100240.63;;;18.58;33.18
56630;BME280;42502;40.732;-74.254;2023-01-15T00:22:44;100265.59;;;18.76;33.39
56630;BME280;42502;40.732;-74.254;2023-01-15T00:24:45;100248.34;;;18.61;33.23
56630;BME280;42502;40.732;-74.254;2023-01-15T00:27:04;100248.91;;;18.67;33.14
56630;BME280;42502;40.732;-74.254;2023-01-15T00:29:25;100257.53;;;18.74;33.32
56630;BME280;42502;40.732;-74.254;2023-01-15T00:31:27;100250.31;;;18.73;33.17
56630;BME280;42502;40.732;-74.254;2023-01-15T00:33:28;100251.13;;;18.74;33.36
56630;BME280;42502;40.732;-74.254;2023-01-15T00:35:29;100243.91;;;18.73;33.21
56630;BME280;42502;40.732;-74.254;2023-01-15T00:37:33;100212.22;;;18.56;33.35
56630;BME280;42502;40.732;-74.254;2023-01-15T00:39:33;100224.44;;;18.64;33.28
56630;BME280;42502;40.732;-74.254;2023-01-15T00:41:34;100239.81;;;18.70;33.19
56630;BME280;42502;40.732;-74.254;2023-01-15T00:43:38;100237.84;;;18.71;33.23
56630;BME280;42502;40.732;-74.254;2023-01-15T00:45:39;100217.22;;;18.63;33.24
56630;BME280;42502;40.732;-74.254;2023-01-15T00:47:41;100227.81;;;18.70;33.38
56630;BME280;42502;40.732;-74.254;2023-01-15T00:49:49;100223.38;;;18.69;33.18
56630;BME280;42502;40.732;-74.254;2023-01-15T00:51:50;100217.78;;;18.69;33.37
56630;BME280;42502;40.732;-74.254;2023-01-15T00:53:52;100209.38;;;18.69;33.14
56630;BME280;42502;40.732;-74.254;2023-01-15T00:55:52;100193.22;;;18.62;33.17
56630;BME280;42502;40.732;-74.254;2023-01-15T00:57:53;100179.34;;;18.53;33.14
56630;BME280;42502;40.732;-74.254;2023-01-15T00:59:54;100200.53;;;18.67;33.27
56630;BME280;42502;40.732;-74.254;2023-01-15T01:01:55;100199.75;;;18.66;33.02
56630;BME280;42502;40.732;-74.254;2023-01-15T01:03:56;100186.69;;;18.58;33.27
56630;BME280;42502;40.732;-74.254;2023-01-15T01:06:03;100198.81;;;18.62;33.47
56630;BME280;42502;40.732;-74.254;2023-01-15T01:08:07;100203.69;;;18.65;33.39
56630;BME280;42502;40.732;-74.254;2023-01-15T01:10:08;100204.84;;;18.64;33.39
56630;BME280;42502;40.732;-74.254;2023-01-15T01:12:09;100202.06;;;18.64;33.25
56630;BME280;42502;40.732;-74.254;2023-01-15T01:14:10;100202.66;;;18.57;33.17
56630;BME280;42502;40.732;-74.254;2023-01-15T01:18:33;100208.84;;;18.63;33.03
56630;BME280;42502;40.732;-74.254;2023-01-15T01:20:36;100198.22;;;18.56;33.47
56630;BME280;42502;40.732;-74.254;2023-01-15T01:22:37;100210.00;;;18.62;33.23
56630;BME280;42502;40.732;-74.254;2023-01-15T01:24:38;100219.19;;;18.62;33.37
56630;BME280;42502;40.732;-74.254;2023-01-15T01:26:39;100202.53;;;18.54;33.23
56630;BME280;42502;40.732;-74.254;2023-01-15T01:28:48;100211.50;;;18.59;33.42
56630;BME280;42502;40.732;-74.254;2023-01-15T01:30:54;100213.16;;;18.60;33.27
56630;BME280;42502;40.732;-74.254;2023-01-15T01:32:58;100217.94;;;18.60;33.40
56630;BME280;42502;40.732;-74.254;2023-01-15T01:34:59;100185.91;;;18.45;33.34
56630;BME280;42502;40.732;-74.254;2023-01-15T01:37:00;100205.91;;;18.59;33.20
56630;BME280;42502;40.732;-74.254;2023-01-15T01:39:02;100188.78;;;18.49;33.32
56630;BME280;42502;40.732;-74.254;2023-01-15T01:41:06;100160.59;;;18.41;33.25
56630;BME280;42502;40.732;-74.254;2023-01-15T01:45:58;100166.75;;;18.59;33.36
56630;BME280;42502;40.732;-74.254;2023-01-15T01:48:03;100163.50;;;18.57;33.25
56630;BME280;42502;40.732;-74.254;2023-01-15T01:50:09;100137.16;;;18.46;33.15
56630;BME280;42502;40.732;-74.254;2023-01-15T01:52:16;100128.28;;;18.56;33.35
56630;BME280;42502;40.732;-74.254;2023-01-15T01:54:20;100105.59;;;18.45;33.20
56630;BME280;42502;40.732;-74.254;2023-01-15T01:56:26;100127.47;;;18.56;33.13
56630;BME280;42502;40.732;-74.254;2023-01-15T01:58:31;100136.22;;;18.54;33.13
56630;BME280;42502;40.732;-74.254;2023-01-15T02:00:34;100140.63;;;18.55;33.13
56630;BME280;42502;40.732;-74.254;2023-01-15T02:02:43;100164.19;;;18.54;33.23
56630;BME280;42502;40.732;-74.254;2023-01-15T02:04:45;100174.44;;;18.50;33.33
56630;BME280;42502;40.732;-74.254;2023-01-15T02:06:46;100200.56;;;18.54;33.44
56630;BME280;42502;40.732;-74.254;2023-01-15T02:08:47;100207.91;;;18.46;33.12
56630;BME280;42502;40.732;-74.254;2023-01-15T02:10:52;100239.25;;;18.52;33.23
56630;BME280;42502;40.732;-74.254;2023-01-15T02:13:06;100237.50;;;18.47;33.48
56630;BME280;42502;40.732;-74.254;2023-01-15T02:15:18;100233.91;;;18.35;33.39
56630;BME280;42502;40.732;-74.254;2023-01-15T02:18:15;100272.72;;;18.49;33.40
56630;BME280;42502;40.732;-74.254;2023-01-15T02:22:28;100284.84;;;18.53;33.17
56630;BME280;42502;40.732;-74.254;2023-01-15T02:24:43;100286.78;;;18.52;33.22
56630;BME280;42502;40.732;-74.254;2023-01-15T02:27:22;100308.25;;;18.48;33.46
56630;BME280;42502;40.732;-74.254;2023-01-15T02:29:46;100282.38;;;18.39;33.41
56630;BME280;42502;40.732;-74.254;2023-01-15T02:31:50;100298.69;;;18.49;33.38
56630;BME280;42502;40.732;-74.254;2023-01-15T02:36:10;100284.69;;;18.49;33.23
56630;BME280;42502;40.732;-74.254;2023-01-15T02:38:16;100281.44;;;18.47;33.31
56630;BME280;42502;40.732;-74.254;2023-01-15T02:40:20;100268.16;;;18.44;33.28
56630;BME280;42502;40.732;-74.254;2023-01-15T02:42:24;100277.00;;;18.46;33.32
56630;BME280;42502;40.732;-74.254;2023-01-15T02:44:28;100260.47;;;18.41;33.39
56630;BME280;42502;40.732;-74.254;2023-01-15T02:46:34;100273.75;;;18.44;33.31
56630;BME280;42502;40.732;-74.254;2023-01-15T02:48:36;100263.03;;;18.34;33.30
56630;BME280;42502;40.732;-74.254;2023-01-15T02:50:42;100287.63;;;18.40;33.55
56630;BME280;42502;40.732;-74.254;2023-01-15T02:52:50;100303.22;;;18.41;33.47
56630;BME280;42502;40.732;-74.254;2023-01-15T02:55:11;100306.97;;;18.33;33.70
56630;BME280;42502;40.732;-74.254;2023-01-15T02:57:15;100331.78;;;18.47;33.55
56630;BME280;42502;40.732;-74.254;2023-01-15T02:59:24;100322.81;;;18.41;33.70
56630;BME280;42502;40.732;-74.254;2023-01-15T03:01:34;100317.44;;;18.36;33.64
56630;BME280;42502;40.732;-74.254;2023-01-15T03:04:06;100339.72;;;18.45;33.63
56630;BME280;42502;40.732;-74.254;2023-01-15T03:08:43;100341.47;;;18.50;33.65
56630;BME280;42502;40.732;-74.254;2023-01-15T03:11:03;100314.66;;;18.36;33.91
56630;BME280;42502;40.732;-74.254;2023-01-15T03:13:07;100348.69;;;18.51;33.81
56630;BME280;42502;40.732;-74.254;2023-01-15T03:15:15;100355.13;;;18.51;33.75
56630;BME280;42502;40.732;-74.254;2023-01-15T03:17:52;100368.75;;;18.53;33.73
56630;BME280;42502;40.732;-74.254;2023-01-15T03:20:05;100349.28;;;18.44;33.71
56630;BME280;42502;40.732;-74.254;2023-01-15T03:22:18;100363.63;;;18.55;33.70
56630;BME280;42502;40.732;-74.254;2023-01-15T03:24:41;100352.53;;;18.46;33.65
56630;BME280;42502;40.732;-74.254;2023-01-15T03:26:43;100366.41;;;18.55;33.94
56630;BME280;42502;40.732;-74.254;2023-01-15T03:28:45;100379.09;;;18.52;34.17
56630;BME280;42502;40.732;-74.254;2023-01-15T03:30:47;100367.00;;;18.48;33.96
56630;BME280;42502;40.732;-74.254;2023-01-15T03:32:48;100376.81;;;18.54;34.23
56630;BME280;42502;40.732;-74.254;2023-01-15T03:34:51;100355.56;;;18.41;34.03
56630;BME280;42502;40.732;-74.254;2023-01-15T03:36:53;100369.66;;;18.57;33.99
56630;BME280;42502;40.732;-74.254;2023-01-15T03:38:54;100342.53;;;18.45;33.98
56630;BME280;42502;40.732;-74.254;2023-01-15T03:41:13;100352.88;;;18.57;34.04
56630;BME280;42502;40.732;-74.254;2023-01-15T03:43:20;100349.06;;;18.61;34.13
56630;BME280;42502;40.732;-74.254;2023-01-15T03:45:43;100315.97;;;18.51;34.05
56630;BME280;42502;40.732;-74.254;2023-01-15T03:48:04;100337.19;;;18.64;34.32
56630;BME280;42502;40.732;-74.254;2023-01-15T03:50:24;100331.59;;;18.64;34.01
56630;BME280;42502;40.732;-74.254;2023-01-15T03:57:06;100301.38;;;18.70;34.17
56630;BME280;42502;40.732;-74.254;2023-01-15T03:59:18;100287.72;;;18.69;34.06
56630;BME280;42502;40.732;-74.254;2023-01-15T04:01:29;100286.81;;;18.77;34.16
56630;BME280;42502;40.732;-74.254;2023-01-15T04:03:33;100282.47;;;18.79;34.05
56630;BME280;42502;40.732;-74.254;2023-01-15T04:05:36;100293.78;;;18.83;34.08
56630;BME280;42502;40.732;-74.254;2023-01-15T04:07:38;100297.88;;;18.86;34.23
56630;BME280;42502;40.732;-74.254;2023-01-15T04:09:39;100303.13;;;18.87;33.88
56630;BME280;42502;40.732;-74.254;2023-01-15T04:11:40;100288.41;;;18.78;34.13
56630;BME280;42502;40.732;-74.254;2023-01-15T04:13:41;100274.44;;;18.78;33.98
56630;BME280;42502;40.732;-74.254;2023-01-15T04:15:42;100286.81;;;18.89;33.96
56630;BME280;42502;40.732;-74.254;2023-01-15T04:17:46;100291.72;;;18.92;33.82
56630;BME280;42502;40.732;-74.254;2023-01-15T04:19:46;100277.94;;;18.87;33.77
56630;BME280;42502;40.732;-74.254;2023-01-15T04:21:50;100256.94;;;18.69;33.61
56630;BME280;42502;40.732;-74.254;2023-01-15T04:23:51;100280.75;;;18.87;33.58
56630;BME280;42502;40.732;-74.254;2023-01-15T04:25:55;100281.94;;;18.86;33.46
56630;BME280;42502;40.732;-74.254;2023-01-15T04:27:56;100264.31;;;18.86;33.57
56630;BME280;42502;40.732;-74.254;2023-01-15T04:29:57;100257.78;;;18.81;33.62
56630;BME280;42502;40.732;-74.254;2023-01-15T04:31:58;100266.03;;;18.90;33.40
56630;BME280;42502;40.732;-74.254;2023-01-15T04:33:59;100270.13;;;18.93;33.55
56630;BME280;42502;40.732;-74.254;2023-01-15T04:36:00;100267.31;;;18.93;33.37
56630;BME280;42502;40.732;-74.254;2023-01-15T04:38:02;100277.00;;;18.95;33.09
56630;BME280;42502;40.732;-74.254;2023-01-15T04:40:03;100275.03;;;18.96;33.29
56630;BME280;42502;40.732;-74.254;2023-01-15T04:42:07;100249.50;;;18.85;33.33
56630;BME280;42502;40.732;-74.254;2023-01-15T04:44:47;100251.47;;;18.97;33.10
56630;BME280;42502;40.732;-74.254;2023-01-15T04:46:57;100263.81;;;18.96;33.26
56630;BME280;42502;40.732;-74.254;2023-01-15T04:48:59;100247.84;;;18.84;33.01
56630;BME280;42502;40.732;-74.254;2023-01-15T04:51:04;100270.97;;;18.93;33.18
56630;BME280;42502;40.732;-74.254;2023-01-15T04:53:05;100280.63;;;18.96;33.01
56630;BME280;42502;40.732;-74.254;2023-01-15T04:55:06;100282.84;;;18.90;33.03
56630;BME280;42502;40.732;-74.254;2023-01-15T04:57:07;100293.81;;;18.95;33.01
56630;BME280;42502;40.732;-74.254;2023-01-15T04:59:08;100294.38;;;18.89;33.11
56630;BME280;42502;40.732;-74.254;2023-01-15T05:01:11;100304.56;;;18.93;33.08
56630;BME280;42502;40.732;-74.254;2023-01-15T05:03:12;100298.03;;;18.89;32.97
56630;BME280;42502;40.732;-74.254;2023-01-15T05:05:13;100301.75;;;18.93;33.05
56630;BME280;42502;40.732;-74.254;2023-01-15T05:07:14;100301.75;;;18.93;32.77
56630;BME280;42502;40.732;-74.254;2023-01-15T05:09:15;100274.78;;;18.89;32.97
56630;BME280;42502;40.732;-74.254;2023-01-15T05:11:16;100310.50;;;18.92;32.93
56630;BME280;42502;40.732;-74.254;2023-01-15T05:13:17;100319.72;;;18.92;32.81
56630;BME280;42502;40.732;-74.254;2023-01-15T05:15:18;100319.94;;;18.87;32.77
56630;BME280;42502;40.732;-74.254;2023-01-15T05:17:19;100327.63;;;18.90;32.81
56630;BME280;42502;40.732;-74.254;2023-01-15T05:19:20;100321.56;;;18.88;32.69
56630;BME280;42502;40.732;-74.254;2023-01-15T05:21:23;100302.91;;;18.80;32.93
56630;BME280;42502;40.732;-74.254;2023-01-15T05:23:27;100315.63;;;18.90;32.99
56630;BME280;42502;40.732;-74.254;2023-01-15T05:25:28;100303.25;;;18.78;32.79
56630;BME280;42502;40.732;-74.254;2023-01-15T05:27:30;100318.78;;;18.88;32.84
56630;BME280;42502;40.732;-74.254;2023-01-15T05:29:31;100331.13;;;18.87;32.88
56630;BME280;42502;40.732;-74.254;2023-01-15T05:31:32;100334.75;;;18.88;32.92
56630;BME280;42502;40.732;-74.254;2023-01-15T05:33:36;100326.44;;;18.79;32.50
56630;BME280;42502;40.732;-74.254;2023-01-15T05:35:37;100335.09;;;18.86;32.88
56630;BME280;42502;40.732;-74.254;2023-01-15T05:37:38;100334.50;;;18.80;32.73
56630;BME280;42502;40.732;-74.254;2023-01-15T05:39:39;100333.47;;;18.85;32.64
56630;BME280;42502;40.732;-74.254;2023-01-15T05:41:40;100338.56;;;18.83;32.69
56630;BME280;42502;40.732;-74.254;2023-01-15T05:43:54;100327.38;;;18.83;32.70
56630;BME280;42502;40.732;-74.254;2023-01-15T05:45:55;100332.97;;;18.83;32.71
56630;BME280;42502;40.732;-74.254;2023-01-15T05:47:55;100320.03;;;18.78;32.49
56630;BME280;42502;40.732;-74.254;2023-01-15T05:49:57;100330.53;;;18.81;32.57
56630;BME280;42502;40.732;-74.254;2023-01-15T05:51:59;100320.50;;;18.80;32.47
56630;BME280;42502;40.732;-74.254;2023-01-15T05:54:01;100328.88;;;18.80;32.65
56630;BME280;42502;40.732;-74.254;2023-01-15T05:56:03;100317.25;;;18.78;32.56
56630;BME280;42502;40.732;-74.254;2023-01-15T05:58:04;100309.66;;;18.79;32.60
56630;BME280;42502;40.732;-74.254;2023-01-15T06:00:06;100297.31;;;18.68;32.61
56630;BME280;42502;40.732;-74.254;2023-01-15T06:02:07;100306.41;;;18.77;32.63
56630;BME280;42502;40.732;-74.254;2023-01-15T06:04:09;100311.16;;;18.76;32.52
56630;BME280;42502;40.732;-74.254;2023-01-15T06:06:16;100293.81;;;18.71;32.59
56630;BME280;42502;40.732;-74.254;2023-01-15T06:08:17;100290.78;;;18.63;32.54
56630;BME280;42502;40.732;-74.254;2023-01-15T06:10:21;100285.06;;;18.60;32.56
56630;BME280;42502;40.732;-74.254;2023-01-15T06:12:22;100283.31;;;18.55;32.65
56630;BME280;42502;40.732;-74.254;2023-01-15T06:14:22;100317.47;;;18.73;32.57
56630;BME280;42502;40.732;-74.254;2023-01-15T06:16:24;100313.25;;;18.67;32.39
56630;BME280;42502;40.732;-74.254;2023-01-15T06:18:25;100320.59;;;18.72;32.40
56630;BME280;42502;40.732;-74.254;2023-01-15T06:20:39;100331.34;;;18.70;32.81
56630;BME280;42502;40.732;-74.254;2023-01-15T06:22:40;100322.00;;;18.65;32.69
56630;BME280;42502;40.732;-74.254;2023-01-15T06:24:41;100307.09;;;18.61;32.36
56630;BME280;42502;40.732;-74.254;2023-01-15T06:26:41;100324.09;;;18.69;32.45
56630;BME280;42502;40.732;-74.254;2023-01-15T06:28:45;100334.50;;;18.68;32.47
56630;BME280;42502;40.732;-74.254;2023-01-15T06:30:46;100323.41;;;18.59;32.37
56630;BME280;42502;40.732;-74.254;2023-01-15T06:32:47;100333.09;;;18.62;32.52
56630;BME280;42502;40.732;-74.254;2023-01-15T06:34:51;100325.66;;;18.66;32.33
56630;BME280;42502;40.732;-74.254;2023-01-15T06:36:52;100323.19;;;18.64;32.44
56630;BME280;42502;40.732;-74.254;2023-01-15T06:38:56;100303.59;;;18.64;32.54
56630;BME280;42502;40.732;-74.254;2023-01-15T06:40:59;100284.38;;;18.63;32.22
56630;BME280;42502;40.732;-74.254;2023-01-15T06:43:00;100282.38;;;18.63;32.34
56630;BME280;42502;40.732;-74.254;2023-01-15T06:45:19;100276.34;;;18.61;32.41
56630;BME280;42502;40.732;-74.254;2023-01-15T06:47:42;100276.34;;;18.61;32.27
56630;BME280;42502;40.732;-74.254;2023-01-15T06:49:46;100282.72;;;18.62;32.11
56630;BME280;42502;40.732;-74.254;2023-01-15T06:51:46;100273.06;;;18.47;32.35
56630;BME280;42502;40.732;-74.254;2023-01-15T06:53:47;100310.56;;;18.58;32.30
56630;BME280;42502;40.732;-74.254;2023-01-15T06:55:48;100321.75;;;18.58;32.49
56630;BME280;42502;40.732;-74.254;2023-01-15T06:57:49;100323.41;;;18.47;32.20
56630;BME280;42502;40.732;-74.254;2023-01-15T06:59:50;100349.28;;;18.56;32.43
56630;BME280;42502;40.732;-74.254;2023-01-15T07:01:52;100352.09;;;18.56;32.18
56630;BME280;42502;40.732;-74.254;2023-01-15T07:03:56;100351.97;;;18.53;32.47
56630;BME280;42502;40.732;-74.254;2023-01-15T07:05:56;100355.22;;;18.55;32.31
56630;BME280;42502;40.732;-74.254;2023-01-15T07:07:58;100353.59;;;18.54;32.25
56630;BME280;42502;40.732;-74.254;2023-01-15T07:09:59;100351.63;;;18.54;32.32
56630;BME280;42502;40.732;-74.254;2023-01-15T07:12:00;100367.13;;;18.52;32.24
56630;BME280;42502;40.732;-74.254;2023-01-15T07:14:01;100386.22;;;18.50;32.08
56630;BME280;42502;40.732;-74.254;2023-01-15T07:16:05;100351.81;;;18.37;32.09
56630;BME280;42502;40.732;-74.254;2023-01-15T07:18:27;100354.63;;;18.37;32.10
56630;BME280;42502;40.732;-74.254;2023-01-15T07:20:31;100377.50;;;18.51;32.23
56630;BME280;42502;40.732;-74.254;2023-01-15T07:22:32;100374.22;;;18.49;32.17
56630;BME280;42502;40.732;-74.254;2023-01-15T07:24:33;100372.09;;;18.46;32.30
56630;BME280;42502;40.732;-74.254;2023-01-15T07:26:34;100383.78;;;18.48;32.26
56630;BME280;42502;40.732;-74.254;2023-01-15T07:28:38;100382.13;;;18.47;32.17
56630;BME280;42502;40.732;-74.254;2023-01-15T07:30:38;100396.47;;;18.45;32.20
56630;BME280;42502;40.732;-74.254;2023-01-15T07:32:40;100370.25;;;18.38;32.16
56630;BME280;42502;40.732;-74.254;2023-01-15T07:34:43;100389.25;;;18.44;32.22
56630;BME280;42502;40.732;-74.254;2023-01-15T07:36:44;100394.03;;;18.44;32.01
56630;BME280;42502;40.732;-74.254;2023-01-15T07:38:45;100382.22;;;18.38;32.21
56630;BME280;42502;40.732;-74.254;2023-01-15T07:40:46;100404.41;;;18.43;32.13
56630;BME280;42502;40.732;-74.254;2023-01-15T07:43:08;100387.38;;;18.36;32.15
56630;BME280;42502;40.732;-74.254;2023-01-15T07:45:27;100389.69;;;18.34;32.01
56630;BME280;42502;40.732;-74.254;2023-01-15T07:47:47;100397.59;;;18.32;32.35
56630;BME280;42502;40.732;-74.254;2023-01-15T07:50:09;100402.50;;;18.35;32.27
56630;BME280;42502;40.732;-74.254;2023-01-15T07:52:16;100398.28;;;18.29;32.23
56630;BME280;42502;40.732;-74.254;2023-01-15T07:54:17;100435.38;;;18.38;32.18
56630;BME280;42502;40.732;-74.254;2023-01-15T07:56:18;100367.56;;;17.96;32.09
56630;BME280;42502;40.732;-74.254;2023-01-15T07:58:19;100432.13;;;18.36;32.22
56630;BME280;42502;40.732;-74.254;2023-01-15T08:00:22;100431.31;;;18.36;31.89
56630;BME280;42502;40.732;-74.254;2023-01-15T08:02:24;100435.25;;;18.35;32.28
56630;BME280;42502;40.732;-74.254;2023-01-15T08:04:25;100442.84;;;18.34;32.25
56630;BME280;42502;40.732;-74.254;2023-01-15T08:06:26;100444.00;;;18.33;32.12
56630;BME280;42502;40.732;-74.254;2023-01-15T08:08:29;100424.56;;;18.16;32.17
56630;BME280;42502;40.732;-74.254;2023-01-15T08:10:30;100456.91;;;18.25;32.16
56630;BME280;42502;40.732;-74.254;2023-01-15T08:12:31;100458.50;;;18.26;32.20
56630;BME280;42502;40.732;-74.254;2023-01-15T08:14:50;100466.25;;;18.29;32.18
56630;BME280;42502;40.732;-74.254;2023-01-15T08:17:09;100480.06;;;18.26;32.38
56630;BME280;42502;40.732;-74.254;2023-01-15T08:19:10;100473.88;;;18.20;32.00
56630;BME280;42502;40.732;-74.254;2023-01-15T08:21:15;100488.34;;;18.22;31.93
56630;BME280;42502;40.732;-74.254;2023-01-15T08:23:16;100479.72;;;18.27;32.28
56630;BME280;42502;40.732;-74.254;2023-01-15T08:25:19;100505.25;;;18.26;31.85
56630;BME280;42502;40.732;-74.254;2023-01-15T08:27:20;100504.44;;;18.25;31.98
56630;BME280;42502;40.732;-74.254;2023-01-15T08:29:21;100492.97;;;18.18;31.98
56630;BME280;42502;40.732;-74.254;2023-01-15T08:31:25;100493.78;;;18.19;31.96
56630;BME280;42502;40.732;-74.254;2023-01-15T08:33:25;100498.69;;;18.22;32.19
56630;BME280;42502;40.732;-74.254;2023-01-15T08:35:26;100497.13;;;18.12;32.26
56630;BME280;42502;40.732;-74.254;2023-01-15T08:37:27;100508.25;;;18.21;32.18
56630;BME280;42502;40.732;-74.254;2023-01-15T08:39:28;100505.66;;;18.16;32.20
56630;BME280;42502;40.732;-74.254;2023-01-15T08:41:30;100520.25;;;18.21;32.12
56630;BME280;42502;40.732;-74.254;2023-01-15T08:43:31;100509.06;;;18.21;32.08
56630;BME280;42502;40.732;-74.254;2023-01-15T08:45:38;100507.19;;;18.13;31.82
56630;BME280;42502;40.732;-74.254;2023-01-15T08:47:39;100521.63;;;18.15;31.92
56630;BME280;42502;40.732;-74.254;2023-01-15T08:49:46;100507.84;;;18.10;32.06
56630;BME280;42502;40.732;-74.254;2023-01-15T08:51:50;100522.59;;;18.19;31.93
56630;BME280;42502;40.732;-74.254;2023-01-15T08:53:52;100500.28;;;18.10;32.19
56630;BME280;42502;40.732;-74.254;2023-01-15T08:55:53;100496.47;;;18.15;32.06
56630;BME280;42502;40.732;-74.254;2023-01-15T08:57:53;100509.00;;;18.09;32.06
56630;BME280;42502;40.732;-74.254;2023-01-15T08:59:54;100512.88;;;18.17;31.89
56630;BME280;42502;40.732;-74.254;2023-01-15T09:01:55;100498.28;;;18.11;31.91
56630;BME280;42502;40.732;-74.254;2023-01-15T09:03:59;100497.59;;;18.14;31.93
56630;BME280;42502;40.732;-74.254;2023-01-15T09:06:05;100494.34;;;18.12;31.98
56630;BME280;42502;40.732;-74.254;2023-01-15T09:08:06;100504.16;;;18.18;31.87
56630;BME280;42502;40.732;-74.254;2023-01-15T09:10:07;100495.03;;;18.09;31.70
56630;BME280;42502;40.732;-74.254;2023-01-15T09:12:08;100509.63;;;18.15;31.85
56630;BME280;42502;40.732;-74.254;2023-01-15T09:14:11;100521.16;;;18.13;32.06
56630;BME280;42502;40.732;-74.254;2023-01-15T09:16:12;100514.13;;;18.07;31.93
56630;BME280;42502;40.732;-74.254;2023-01-15T09:18:13;100497.09;;;18.00;31.96
56630;BME280;42502;40.732;-74.254;2023-01-15T09:20:18;100487.38;;;17.97;32.00
56630;BME280;42502;40.732;-74.254;2023-01-15T09:22:19;100510.66;;;18.10;31.91
56630;BME280;42502;40.732;-74.254;2023-01-15T09:24:20;100504.56;;;18.08;31.98
56630;BME280;42502;40.732;-74.254;2023-01-15T09:26:35;100511.69;;;18.05;31.92
56630;BME280;42502;40.732;-74.254;2023-01-15T09:28:37;100514.94;;;18.07;31.98
56630;BME280;42502;40.732;-74.254;2023-01-15T09:30:37;100519.72;;;18.07;31.62
56630;BME280;42502;40.732;-74.254;2023-01-15T09:32:38;100527.63;;;18.05;32.02
56630;BME280;42502;40.732;-74.254;2023-01-15T09:34:39;100526.00;;;18.04;32.01
56630;BME280;42502;40.732;-74.254;2023-01-15T09:36:43;100517.59;;;18.04;32.01
56630;BME280;42502;40.732;-74.254;2023-01-15T09:38:48;100497.75;;;17.97;31.73
56630;BME280;42502;40.732;-74.254;2023-01-15T09:41:10;;;;18.01;
56630;BME280;42502;40.732;-74.254;2023-01-15T09:43:51;100511.88;;;18.00;31.99
56630;BME280;42502;40.732;-74.254;2023-01-15T09:46:24;100516.19;;;17.98;31.83
56630;BME280;42502;40.732;-74.254;2023-01-15T09:48:37;100513.16;;;18.03;31.93
56630;BME280;42502;40.732;-74.254;2023-01-15T09:56:54;100504.50;;;17.96;31.69
56630;BME280;42502;40.732;-74.254;2023-01-15T09:58:57;100500.56;;;17.97;31.74
56630;BME280;42502;40.732;-74.254;2023-01-15T10:00:59;100478.16;;;17.75;31.73
56630;BME280;42502;40.732;-74.254;2023-01-15T10:05:29;100486.53;;;17.75;32.00
56630;BME280;42502;40.732;-74.254;2023-01-15T10:09:41;100511.56;;;17.93;31.73
56630;BME280;42502;40.732;-74.254;2023-01-15T10:11:55;100503.59;;;17.83;31.73
56630;BME280;42502;40.732;-74.254;2023-01-15T10:14:39;100514.25;;;17.89;32.18
56630;BME280;42502;40.732;-74.254;2023-01-15T10:16:43;100532.31;;;17.92;31.77
56630;BME280;42502;40.732;-74.254;2023-01-15T10:18:44;100527.41;;;17.89;31.84
56630;BME280;42502;40.732;-74.254;2023-01-15T10:25:49;100548.59;;;17.90;31.58
56630;BME280;42502;40.732;-74.254;2023-01-15T10:27:51;100543.31;;;17.88;31.56
56630;BME280;42502;40.732;-74.254;2023-01-15T10:30:05;100544.50;;;17.87;31.74
56630;BME280;42502;40.732;-74.254;2023-01-15T10:37:00;100542.41;;;17.75;31.70
56630;BME280;42502;40.732;-74.254;2023-01-15T10:39:23;100558.63;;;17.82;31.85
56630;BME280;42502;40.732;-74.254;2023-01-15T10:45:47;100554.22;;;17.81;31.81
56630;BME280;42502;40.732;-74.254;2023-01-15T10:47:55;100553.47;;;17.72;31.80
56630;BME280;42502;40.732;-74.254;2023-01-15T10:50:01;100554.28;;;17.72;31.80
56630;BME280;42502;40.732;-74.254;2023-01-15T10:52:22;100548.06;;;17.67;31.47
56630;BME280;42502;40.732;-74.254;2023-01-15T10:54:37;100556.06;;;17.77;31.76
56630;BME280;42502;40.732;-74.254;2023-01-15T10:56:51;100554.41;;;17.76;31.93
56630;BME280;42502;40.732;-74.254;2023-01-15T11:01:05;100564.78;;;17.75;31.61
56630;BME280;42502;40.732;-74.254;2023-01-15T11:03:14;100562.78;;;17.76;31.94
56630;BME280;42502;40.732;-74.254;2023-01-15T11:05:19;100565.59;;;17.76;31.47
56630;BME280;42502;40.732;-74.254;2023-01-15T11:07:51;100550.84;;;17.67;31.68
56630;BME280;42502;40.732;-74.254;2023-01-15T11:09:51;100567.09;;;17.73;31.84
56630;BME280;42502;40.732;-74.254;2023-01-15T11:12:13;100565.78;;;17.71;31.70
56630;BME280;42502;40.732;-74.254;2023-01-15T11:14:17;100573.16;;;17.75;31.70
56630;BME280;42502;40.732;-74.254;2023-01-15T11:16:37;100572.69;;;17.73;31.77
56630;BME280;42502;40.732;-74.254;2023-01-15T11:19:02;100571.84;;;17.73;31.69
56630;BME280;42502;40.732;-74.254;2023-01-15T11:21:25;100571.84;;;17.73;31.67
56630;BME280;42502;40.732;-74.254;2023-01-15T11:23:27;100564.81;;;17.67;31.45